createdAt,value
2023-02-14T00:01:16.625Z,323.40
2023-02-14T00:04:23.749Z,316.81
2023-02-14T00:07:29.798Z,312.58
2023-02-14T00:10:36.628Z,313.37
2023-02-14T00:14:03.109Z,313.81
2023-02-14T00:17:10.005Z,306.32
2023-02-14T00:20:15.930Z,315.99
2023-02-14T00:23:22.604Z,320.65
2023-02-14T00:26:28.466Z,319.12
2023-02-14T00:29:36.783Z,302.31
2023-02-14T00:32:46.570Z,297.87
2023-02-14T00:35:53.406Z,318.35
2023-02-14T00:39:00.026Z,320.41
2023-02-14T00:42:07.044Z,341.38
2023-02-14T00:45:13.569Z,317.52
2023-02-14T00:48:23.291Z,319.80
2023-02-14T00:51:30.047Z,323.58
2023-02-14T00:54:36.943Z,302.76
2023-02-14T00:57:44.837Z,301.35
2023-02-14T01:00:51.534Z,289.40
2023-02-14T01:04:01.987Z,282.69
2023-02-14T01:07:08.728Z,279.47
2023-02-14T01:10:15.584Z,277.55
2023-02-14T01:13:23.273Z,304.94
2023-02-14T01:16:33.372Z,298.64
2023-02-14T01:19:42.677Z,309.80
2023-02-14T01:22:48.604Z,274.63
2023-02-14T01:25:55.288Z,274.96
2023-02-14T01:29:01.119Z,253.79
2023-02-14T01:32:09.123Z,252.16
2023-02-14T01:35:17.856Z,267.12
2023-02-14T01:38:24.559Z,274.38
2023-02-14T01:41:34.295Z,284.56
2023-02-14T01:45:03.397Z,286.87
2023-02-14T01:48:13.855Z,258.54
2023-02-14T01:51:24.975Z,289.27
2023-02-14T01:54:41.757Z,320.84
2023-02-14T01:57:57.228Z,333.28
2023-02-14T02:01:03.586Z,330.04
2023-02-14T02:04:20.016Z,338.92
2023-02-14T02:07:33.081Z,326.22
2023-02-14T02:10:39.821Z,295.36
2023-02-14T02:13:46.631Z,296.00
2023-02-14T02:17:24.096Z,275.61
2023-02-14T02:21:08.453Z,283.73
2023-02-14T02:24:35.410Z,274.50
2023-02-14T02:28:13.436Z,302.71
2023-02-14T02:31:47.708Z,304.19
2023-02-14T02:35:48.846Z,267.42
2023-02-14T02:39:15.804Z,263.82
2023-02-14T02:42:40.228Z,292.91
2023-02-14T02:46:14.062Z,301.57
2023-02-14T02:49:52.442Z,284.10
2023-02-14T02:53:15.124Z,267.50
2023-02-14T02:56:43.981Z,256.07
2023-02-14T02:59:55.217Z,240.92
2023-02-14T03:03:15.815Z,233.22
2023-02-14T03:06:22.032Z,231.42
2023-02-14T03:10:00.920Z,249.52
2023-02-14T03:13:56.333Z,241.45
2023-02-14T03:17:32.937Z,215.79
2023-02-14T03:21:02.452Z,221.28
2023-02-14T03:24:20.866Z,217.98
2023-02-14T03:27:38.330Z,231.37
2023-02-14T03:31:00.342Z,263.65
2023-02-14T03:34:19.902Z,258.09
2023-02-14T03:37:38.194Z,250.01
2023-02-14T03:40:54.904Z,267.55
2023-02-14T03:44:13.029Z,251.62
2023-02-14T03:47:27.175Z,229.27
2023-02-14T03:50:37.735Z,226.46
2023-02-14T03:53:52.078Z,233.26
2023-02-14T03:57:16.185Z,219.23
2023-02-14T04:00:29.561Z,228.63
2023-02-14T04:03:45.392Z,240.73
2023-02-14T04:06:51.637Z,228.32
2023-02-14T04:09:58.408Z,220.39
2023-02-14T04:13:07.786Z,214.23
2023-02-14T04:16:17.255Z,220.31
2023-02-14T04:19:23.668Z,204.29
2023-02-14T04:22:35.272Z,203.58
2023-02-14T04:25:43.351Z,205.89
2023-02-14T04:28:50.144Z,205.10
2023-02-14T04:31:58.689Z,204.70
2023-02-14T04:35:08.818Z,222.57
2023-02-14T04:38:14.891Z,226.39
2023-02-14T04:41:21.552Z,215.44
2023-02-14T04:44:27.832Z,217.23
2023-02-14T04:47:37.217Z,216.44
2023-02-14T04:50:47.612Z,218.48
2023-02-14T04:53:54.362Z,214.24
2023-02-14T04:57:00.346Z,213.22
2023-02-14T05:00:12.221Z,219.49
2023-02-14T05:03:20.673Z,222.05
2023-02-14T05:06:34.571Z,227.51
2023-02-14T05:09:40.575Z,238.13
2023-02-14T05:12:47.333Z,242.99
2023-02-14T05:15:53.608Z,239.88
2023-02-14T05:19:02.950Z,234.30
2023-02-14T05:22:08.911Z,234.02
2023-02-14T05:25:15.527Z,230.15
2023-02-14T05:28:22.565Z,238.54
2023-02-14T05:31:29.339Z,226.82
2023-02-14T05:34:38.189Z,221.84
2023-02-14T05:37:46.929Z,216.17
2023-02-14T05:40:52.915Z,223.72
2023-02-14T05:43:59.619Z,239.59
2023-02-14T05:47:05.721Z,261.42
2023-02-14T05:50:15.402Z,268.54
2023-02-14T05:53:21.441Z,262.94
2023-02-14T05:56:28.296Z,264.41
2023-02-14T05:59:34.148Z,259.10
2023-02-14T06:02:40.793Z,245.51
2023-02-14T06:05:49.252Z,244.17
2023-02-14T06:08:56.136Z,239.10
2023-02-14T06:12:01.944Z,230.29
2023-02-14T06:15:10.117Z,221.03
2023-02-14T06:18:16.079Z,216.10
2023-02-14T06:21:25.622Z,211.40
2023-02-14T06:24:31.743Z,213.95
2023-02-14T06:27:38.503Z,209.65
2023-02-14T06:30:45.506Z,202.54
2023-02-14T06:33:52.515Z,196.28
2023-02-14T06:37:01.077Z,189.64
2023-02-14T06:40:10.164Z,181.73
2023-02-14T06:43:16.173Z,181.26
2023-02-14T06:46:23.218Z,179.57
2023-02-14T06:49:29.316Z,195.86
2023-02-14T06:52:38.706Z,195.33
2023-02-14T06:55:45.437Z,195.73
2023-02-14T06:58:52.202Z,215.30
2023-02-14T07:01:58.029Z,209.60
2023-02-14T07:05:04.820Z,205.82
2023-02-14T07:08:13.347Z,211.62
2023-02-14T07:11:20.044Z,198.22
2023-02-14T07:14:26.290Z,208.25
2023-02-14T07:17:32.953Z,204.98
2023-02-14T07:20:38.997Z,202.32
2023-02-14T07:23:50.214Z,202.84
2023-02-14T07:26:56.134Z,211.05
2023-02-14T07:30:02.898Z,217.61
2023-02-14T07:33:08.960Z,203.29
2023-02-14T07:36:15.782Z,223.43
2023-02-14T07:39:24.377Z,253.90
2023-02-14T07:42:31.332Z,241.12
2023-02-14T07:45:37.900Z,231.92
2023-02-14T07:48:44.569Z,227.17
2023-02-14T07:51:50.554Z,243.61
2023-02-14T07:54:59.894Z,321.85
2023-02-14T07:58:05.946Z,309.51
2023-02-14T08:01:12.806Z,274.13
2023-02-14T08:04:18.720Z,284.08
2023-02-14T08:07:25.592Z,253.76
2023-02-14T08:10:34.188Z,283.58
2023-02-14T08:13:41.016Z,257.36
2023-02-14T08:16:46.871Z,250.25
2023-02-14T08:19:53.616Z,306.30
2023-02-14T08:22:59.967Z,333.12
2023-02-14T08:26:09.872Z,306.96
2023-02-14T08:29:16.907Z,301.32
2023-02-14T08:32:23.903Z,347.98
2023-02-14T08:35:29.925Z,341.85
2023-02-14T08:38:36.615Z,310.15
2023-02-14T08:41:45.082Z,319.17
2023-02-14T08:44:51.770Z,298.32
2023-02-14T08:47:57.722Z,324.64
2023-02-14T08:51:09.746Z,320.27
2023-02-14T08:54:16.146Z,285.11
2023-02-14T08:57:25.482Z,316.79
2023-02-14T09:00:31.438Z,392.16
2023-02-14T09:03:38.606Z,308.32
2023-02-14T09:06:44.704Z,328.22
2023-02-14T09:09:51.438Z,337.11
2023-02-14T09:12:59.868Z,301.47
2023-02-14T09:16:08.642Z,292.03
2023-02-14T09:19:15.007Z,303.66
2023-02-14T09:22:23.365Z,288.09
2023-02-14T09:25:29.191Z,328.35
2023-02-14T09:28:39.577Z,268.23
2023-02-14T09:31:45.819Z,232.73
2023-02-14T09:34:52.733Z,274.28
2023-02-14T09:37:58.774Z,201.78
2023-02-14T09:41:11.402Z,250.32
2023-02-14T09:44:34.602Z,207.42
2023-02-14T09:47:54.257Z,228.91
2023-02-14T09:51:06.730Z,213.47
2023-02-14T09:54:22.200Z,256.14
2023-02-14T09:57:46.800Z,338.93
2023-02-14T10:01:09.870Z,218.82
2023-02-14T10:04:39.648Z,209.64
2023-02-14T10:08:11.423Z,204.56
2023-02-14T10:11:24.951Z,181.22
2023-02-14T10:14:41.189Z,182.32
2023-02-14T10:17:57.030Z,180.63
2023-02-14T10:21:08.163Z,202.83
2023-02-14T10:24:24.458Z,196.20
2023-02-14T10:27:39.884Z,155.28
2023-02-14T10:31:03.985Z,169.94
2023-02-14T10:34:24.189Z,179.19
2023-02-14T10:38:00.147Z,197.11
2023-02-14T10:41:35.770Z,210.46
2023-02-14T10:44:58.964Z,155.01
2023-02-14T10:48:26.528Z,192.44
2023-02-14T10:51:48.280Z,290.50
2023-02-14T10:55:03.183Z,406.54
2023-02-14T10:58:16.337Z,331.50
2023-02-14T11:01:23.544Z,223.76
2023-02-14T11:04:33.547Z,274.64
2023-02-14T11:07:42.877Z,188.08
2023-02-14T11:10:49.851Z,175.62
2023-02-14T11:13:57.122Z,187.40
2023-02-14T11:17:23.168Z,197.75
2023-02-14T11:20:32.581Z,213.41
2023-02-14T11:23:44.312Z,200.29
2023-02-14T11:26:57.729Z,194.37
2023-02-14T11:30:03.901Z,228.41
2023-02-14T11:33:25.876Z,228.62
2023-02-14T11:36:34.873Z,268.90
2023-02-14T11:39:44.696Z,348.65
2023-02-14T11:42:54.632Z,163.85
2023-02-14T11:46:28.281Z,104.17
2023-02-14T11:49:44.338Z,122.07
2023-02-14T11:53:00.664Z,169.44
2023-02-14T11:56:16.954Z,185.62
2023-02-14T11:59:34.711Z,226.68
2023-02-14T12:02:46.643Z,248.03
2023-02-14T12:06:00.697Z,184.45
2023-02-14T12:09:27.160Z,204.57
2023-02-14T12:12:40.218Z,166.47
2023-02-14T12:15:57.667Z,140.58
2023-02-14T12:19:09.917Z,135.87
2023-02-14T12:22:26.329Z,158.83
2023-02-14T12:25:49.851Z,141.30
2023-02-14T12:29:13.403Z,145.96
2023-02-14T12:32:27.237Z,142.91
2023-02-14T12:36:12.660Z,149.37
2023-02-14T12:39:39.235Z,157.60
2023-02-14T12:43:12.832Z,154.63
2023-02-14T12:47:02.610Z,160.25
2023-02-14T12:50:37.096Z,206.71
2023-02-14T12:54:30.894Z,452.61
2023-02-14T12:57:53.111Z,186.81
2023-02-14T13:01:28.844Z,154.04
2023-02-14T13:05:02.634Z,324.33
2023-02-14T13:08:35.292Z,165.67
2023-02-14T13:12:02.457Z,161.02
2023-02-14T13:15:29.842Z,247.37
2023-02-14T13:18:53.059Z,183.42
2023-02-14T13:22:07.917Z,130.83
2023-02-14T13:25:31.991Z,196.69
2023-02-14T13:28:45.221Z,187.73
2023-02-14T13:31:57.067Z,185.02
2023-02-14T13:35:05.623Z,145.09
2023-02-14T13:38:21.622Z,221.56
2023-02-14T13:41:31.733Z,227.91
2023-02-14T13:44:50.628Z,216.93
2023-02-14T13:48:11.474Z,218.55
2023-02-14T13:51:17.597Z,216.10
2023-02-14T13:54:46.835Z,256.83
2023-02-14T13:58:07.870Z,323.24
2023-02-14T14:01:35.942Z,502.88
2023-02-14T14:04:42.086Z,316.18
2023-02-14T14:07:48.804Z,187.69
2023-02-14T14:11:00.982Z,236.73
2023-02-14T14:14:40.699Z,241.68
2023-02-14T14:17:51.507Z,128.18
2023-02-14T14:20:58.650Z,141.30
2023-02-14T14:24:26.317Z,214.04
2023-02-14T14:27:43.524Z,198.69
2023-02-14T14:30:50.662Z,229.26
2023-02-14T14:34:03.662Z,240.29
2023-02-14T14:37:20.193Z,250.87
2023-02-14T14:40:32.426Z,261.66
2023-02-14T14:43:44.012Z,273.83
2023-02-14T14:46:51.988Z,213.24
2023-02-14T14:50:10.378Z,208.73
2023-02-14T14:53:30.795Z,349.04
2023-02-14T14:56:47.300Z,636.42
2023-02-14T15:00:31.742Z,741.44
2023-02-14T15:03:37.859Z,616.16
2023-02-14T15:06:47.440Z,341.89
2023-02-14T15:09:53.528Z,284.84
2023-02-14T15:13:14.890Z,366.98
2023-02-14T15:16:33.830Z,441.44
2023-02-14T15:19:51.193Z,269.89
2023-02-14T15:22:57.672Z,343.62
2023-02-14T15:26:07.964Z,180.20
2023-02-14T15:29:26.601Z,310.35
2023-02-14T15:32:40.344Z,550.84
2023-02-14T15:35:51.637Z,373.34
2023-02-14T15:39:06.498Z,188.38
2023-02-14T15:42:29.635Z,190.55
2023-02-14T15:45:37.928Z,199.31
2023-02-14T15:48:49.480Z,216.73
2023-02-14T15:51:57.789Z,321.36
2023-02-14T15:55:10.345Z,435.93
2023-02-14T15:58:29.255Z,583.35
2023-02-14T16:01:45.882Z,622.47
2023-02-14T16:05:12.083Z,386.66
2023-02-14T16:08:34.175Z,313.18
2023-02-14T16:11:41.709Z,267.49
2023-02-14T16:15:01.737Z,349.88
2023-02-14T16:18:22.458Z,388.95
2023-02-14T16:21:36.371Z,313.36
2023-02-14T16:24:43.641Z,338.97
2023-02-14T16:27:49.491Z,344.66
2023-02-14T16:31:05.233Z,325.02
2023-02-14T16:34:16.050Z,301.60
2023-02-14T16:37:31.781Z,315.07
2023-02-14T16:40:48.199Z,313.19
2023-02-14T16:43:55.337Z,300.91
2023-02-14T16:47:01.174Z,291.00
2023-02-14T16:50:11.544Z,313.18
2023-02-14T16:53:38.224Z,334.90
2023-02-14T16:56:54.487Z,362.23
2023-02-14T17:00:00.706Z,374.31
2023-02-14T17:03:11.778Z,383.85
2023-02-14T17:06:27.755Z,398.73
2023-02-14T17:09:45.814Z,408.88
2023-02-14T17:12:54.658Z,357.91
2023-02-14T17:16:04.920Z,356.61
2023-02-14T17:19:16.778Z,357.64
2023-02-14T17:22:24.808Z,373.92
2023-02-14T17:25:39.220Z,348.59
2023-02-14T17:28:46.612Z,346.03
2023-02-14T17:31:52.540Z,380.38
2023-02-14T17:35:05.101Z,443.88
2023-02-14T17:38:11.045Z,509.44
2023-02-14T17:41:24.591Z,475.83
2023-02-14T17:44:32.646Z,486.09
2023-02-14T17:47:45.410Z,443.53
2023-02-14T17:50:51.373Z,407.08
2023-02-14T17:53:59.077Z,366.15
2023-02-14T17:57:07.848Z,391.26
2023-02-14T18:00:16.837Z,395.93
2023-02-14T18:03:24.060Z,413.46
2023-02-14T18:06:36.794Z,407.99
2023-02-14T18:09:47.615Z,428.75
2023-02-14T18:12:56.920Z,400.57
2023-02-14T18:16:12.910Z,349.61
2023-02-14T18:19:19.831Z,338.51
2023-02-14T18:22:27.331Z,331.24
2023-02-14T18:25:40.446Z,364.35
2023-02-14T18:28:51.108Z,380.88
2023-02-14T18:31:59.365Z,400.19
2023-02-14T18:35:05.258Z,422.07
2023-02-14T18:38:12.741Z,499.61
2023-02-14T18:41:24.622Z,592.76
2023-02-14T18:44:34.476Z,529.57
2023-02-14T18:47:40.371Z,437.28
2023-02-14T18:50:47.178Z,452.42
2023-02-14T18:53:55.612Z,415.89
2023-02-14T18:57:08.597Z,363.73
2023-02-14T19:00:23.146Z,356.13
2023-02-14T19:03:40.923Z,354.97
2023-02-14T19:06:46.865Z,359.82
2023-02-14T19:09:54.046Z,389.44
2023-02-14T19:13:00.106Z,416.55
2023-02-14T19:16:20.701Z,444.89
2023-02-14T19:19:26.599Z,472.64
2023-02-14T19:22:33.319Z,467.54
2023-02-14T19:25:42.925Z,783.55
2023-02-14T19:28:53.367Z,1034.04
2023-02-14T19:32:03.907Z,799.11
2023-02-14T19:35:12.067Z,940.57
2023-02-14T19:38:17.841Z,857.99
2023-02-14T19:41:30.023Z,883.39
2023-02-14T19:44:35.820Z,719.23
2023-02-14T19:47:47.425Z,576.95
2023-02-14T19:50:55.376Z,547.23
2023-02-14T19:54:05.990Z,549.59
2023-02-14T19:57:18.002Z,740.88
2023-02-14T20:00:25.242Z,1030.26
2023-02-14T20:03:42.910Z,894.32
2023-02-14T20:06:51.256Z,598.57
2023-02-14T20:09:57.855Z,542.08
2023-02-14T20:13:16.566Z,532.99
2023-02-14T20:16:23.275Z,680.30
2023-02-14T20:19:38.135Z,710.41
2023-02-14T20:22:44.551Z,648.84
2023-02-14T20:25:51.198Z,610.49
2023-02-14T20:28:57.823Z,636.97
2023-02-14T20:32:05.076Z,636.59
2023-02-14T20:35:13.675Z,684.81
2023-02-14T20:38:20.596Z,653.04
2023-02-14T20:41:27.871Z,596.54
2023-02-14T20:44:34.922Z,553.67
2023-02-14T20:47:40.782Z,506.60
2023-02-14T20:50:50.278Z,462.88
2023-02-14T20:53:57.179Z,501.07
2023-02-14T20:57:03.873Z,595.46
2023-02-14T21:00:12.297Z,510.52
2023-02-14T21:03:18.938Z,515.64
2023-02-14T21:06:31.638Z,561.92
2023-02-14T21:09:38.736Z,507.76
2023-02-14T21:12:44.703Z,516.19
2023-02-14T21:15:51.442Z,516.21
2023-02-14T21:19:01.366Z,534.81
2023-02-14T21:22:10.889Z,525.80
2023-02-14T21:25:16.717Z,573.60
2023-02-14T21:28:23.437Z,625.90
2023-02-14T21:31:29.461Z,626.88
2023-02-14T21:34:36.751Z,608.21
2023-02-14T21:37:45.320Z,594.24
2023-02-14T21:40:52.048Z,581.46
2023-02-14T21:43:59.385Z,552.72
2023-02-14T21:47:06.050Z,557.17
2023-02-14T21:50:26.142Z,572.04
2023-02-14T21:53:36.640Z,612.44
2023-02-14T21:56:44.418Z,640.48
2023-02-14T21:59:51.211Z,635.26
2023-02-14T22:02:57.172Z,648.91
2023-02-14T22:06:08.941Z,585.18
2023-02-14T22:09:19.156Z,572.21
2023-02-14T22:12:25.829Z,577.65
2023-02-14T22:15:31.702Z,631.01
2023-02-14T22:18:38.834Z,748.68
2023-02-14T22:21:46.426Z,745.93
2023-02-14T22:24:55.705Z,718.04
2023-02-14T22:28:02.439Z,603.84
2023-02-14T22:31:10.072Z,609.83
2023-02-14T22:34:20.016Z,572.00
2023-02-14T22:37:29.705Z,479.70
2023-02-14T22:40:39.289Z,445.25
2023-02-14T22:43:47.400Z,473.60
2023-02-14T22:46:53.347Z,441.48
2023-02-14T22:50:01.164Z,343.51
2023-02-14T22:53:07.795Z,275.50
2023-02-14T22:56:21.484Z,280.84
2023-02-14T22:59:32.363Z,305.77
2023-02-14T23:02:39.110Z,299.08
2023-02-14T23:05:44.962Z,316.03
2023-02-14T23:08:51.985Z,310.65
2023-02-14T23:12:00.469Z,267.01
2023-02-14T23:15:19.942Z,254.10
2023-02-14T23:18:38.174Z,266.50
2023-02-14T23:21:59.676Z,270.08
2023-02-14T23:25:10.656Z,271.70
2023-02-14T23:28:20.019Z,295.55
2023-02-14T23:31:25.995Z,286.76
2023-02-14T23:34:37.187Z,407.16
2023-02-14T23:37:42.993Z,592.73
2023-02-14T23:41:02.011Z,326.51
2023-02-14T23:44:11.284Z,324.89
2023-02-14T23:47:18.931Z,349.16
2023-02-14T23:50:25.065Z,331.19
2023-02-14T23:53:31.694Z,283.72
2023-02-14T23:56:38.191Z,311.46
2023-02-14T23:59:47.475Z,306.75
